sensor_id;sensor_type;location;lat;lon;timestamp;temperature;humidity
79786;DHT22;69265;43.614;13.518;2023-06-14T01:02:27;20.30;61.60
79786;DHT22;69265;43.614;13.518;2023-06-14T04:27:27;20.50;62.80
79786;DHT22;69265;43.614;13.518;2023-06-14T04:29:56;20.50;62.80
79786;DHT22;69265;43.614;13.518;2023-06-14T04:32:23;20.50;62.80
79786;DHT22;69265;43.614;13.518;2023-06-14T04:34:54;20.50;62.80
79786;DHT22;69265;43.614;13.518;2023-06-14T04:37:20;20.50;62.80
79786;DHT22;69265;43.614;13.518;2023-06-14T04:39:46;20.50;62.80
79786;DHT22;69265;43.614;13.518;2023-06-14T04:42:12;20.50;62.80
79786;DHT22;69265;43.614;13.518;2023-06-14T04:44:43;20.60;62.80
79786;DHT22;69265;43.614;13.518;2023-06-14T04:47:14;20.60;62.80
79786;DHT22;69265;43.614;13.518;2023-06-14T04:49:41;20.70;62.80
79786;DHT22;69265;43.614;13.518;2023-06-14T04:52:08;20.80;62.70
79786;DHT22;69265;43.614;13.518;2023-06-14T04:54:38;20.80;62.60
79786;DHT22;69265;43.614;13.518;2023-06-14T04:57:11;20.80;62.50
79786;DHT22;69265;43.614;13.518;2023-06-14T04:59:48;20.80;62.70
79786;DHT22;69265;43.614;13.518;2023-06-14T05:02:28;20.80;62.70
79786;DHT22;69265;43.614;13.518;2023-06-14T05:08:49;20.80;62.70
79786;DHT22;69265;43.614;13.518;2023-06-14T05:11:23;20.80;62.80
79786;DHT22;69265;43.614;13.518;2023-06-14T05:13:52;20.70;62.90
79786;DHT22;69265;43.614;13.518;2023-06-14T05:16:18;20.70;63.00
79786;DHT22;69265;43.614;13.518;2023-06-14T05:18:45;20.70;63.00
79786;DHT22;69265;43.614;13.518;2023-06-14T05:21:12;20.70;63.10
79786;DHT22;69265;43.614;13.518;2023-06-14T05:23:39;20.70;63.20
79786;DHT22;69265;43.614;13.518;2023-06-14T05:26:05;20.70;63.40
79786;DHT22;69265;43.614;13.518;2023-06-14T05:28:33;20.70;63.40
79786;DHT22;69265;43.614;13.518;2023-06-14T05:30:58;20.70;63.40
79786;DHT22;69265;43.614;13.518;2023-06-14T05:33:27;20.70;63.30
79786;DHT22;69265;43.614;13.518;2023-06-14T05:35:53;20.70;63.40
79786;DHT22;69265;43.614;13.518;2023-06-14T05:38:18;20.70;63.40
79786;DHT22;69265;43.614;13.518;2023-06-14T05:40:44;20.80;63.40
79786;DHT22;69265;43.614;13.518;2023-06-14T05:43:10;20.80;63.40
79786;DHT22;69265;43.614;13.518;2023-06-14T05:45:36;20.80;63.40
79786;DHT22;69265;43.614;13.518;2023-06-14T05:48:01;20.80;63.50
79786;DHT22;69265;43.614;13.518;2023-06-14T05:50:27;20.80;63.60
79786;DHT22;69265;43.614;13.518;2023-06-14T05:52:53;20.80;63.60
79786;DHT22;69265;43.614;13.518;2023-06-14T05:55:19;20.80;63.70
79786;DHT22;69265;43.614;13.518;2023-06-14T05:57:45;20.90;63.70
79786;DHT22;69265;43.614;13.518;2023-06-14T06:00:11;21.00;63.70
79786;DHT22;69265;43.614;13.518;2023-06-14T06:02:37;21.00;63.60
79786;DHT22;69265;43.614;13.518;2023-06-14T06:05:02;21.10;63.50
79786;DHT22;69265;43.614;13.518;2023-06-14T06:07:28;21.10;63.50
79786;DHT22;69265;43.614;13.518;2023-06-14T06:09:54;21.20;63.40
79786;DHT22;69265;43.614;13.518;2023-06-14T06:12:19;21.30;63.30
79786;DHT22;69265;43.614;13.518;2023-06-14T06:14:45;21.30;63.30
79786;DHT22;69265;43.614;13.518;2023-06-14T06:17:11;21.40;63.00
79786;DHT22;69265;43.614;13.518;2023-06-14T06:19:36;21.50;62.90
79786;DHT22;69265;43.614;13.518;2023-06-14T06:22:02;21.50;62.90
79786;DHT22;69265;43.614;13.518;2023-06-14T06:24:30;21.50;62.90
79786;DHT22;69265;43.614;13.518;2023-06-14T06:26:55;21.60;62.80
79786;DHT22;69265;43.614;13.518;2023-06-14T06:29:21;21.70;62.80
79786;DHT22;69265;43.614;13.518;2023-06-14T06:31:47;21.70;62.80
79786;DHT22;69265;43.614;13.518;2023-06-14T06:34:12;21.70;62.90
79786;DHT22;69265;43.614;13.518;2023-06-14T06:36:38;21.80;62.90
79786;DHT22;69265;43.614;13.518;2023-06-14T06:39:03;21.90;62.80
79786;DHT22;69265;43.614;13.518;2023-06-14T06:41:38;21.90;62.70
79786;DHT22;69265;43.614;13.518;2023-06-14T06:44:08;21.90;62.70
79786;DHT22;69265;43.614;13.518;2023-06-14T06:46:36;21.90;62.90
79786;DHT22;69265;43.614;13.518;2023-06-14T06:49:05;21.80;63.00
79786;DHT22;69265;43.614;13.518;2023-06-14T06:51:31;21.70;63.20
79786;DHT22;69265;43.614;13.518;2023-06-14T06:53:56;21.70;63.20
79786;DHT22;69265;43.614;13.518;2023-06-14T06:56:22;21.70;63.40
79786;DHT22;69265;43.614;13.518;2023-06-14T06:58:49;21.70;63.20
79786;DHT22;69265;43.614;13.518;2023-06-14T07:01:15;21.70;63.20
79786;DHT22;69265;43.614;13.518;2023-06-14T07:03:41;21.50;63.40
79786;DHT22;69265;43.614;13.518;2023-06-14T07:06:06;21.50;63.60
79786;DHT22;69265;43.614;13.518;2023-06-14T07:08:32;21.50;63.60
79786;DHT22;69265;43.614;13.518;2023-06-14T07:10:58;21.50;63.60
79786;DHT22;69265;43.614;13.518;2023-06-14T07:13:23;21.50;63.70
79786;DHT22;69265;43.614;13.518;2023-06-14T07:15:49;21.40;63.50
79786;DHT22;69265;43.614;13.518;2023-06-14T07:18:15;21.30;63.40
79786;DHT22;69265;43.614;13.518;2023-06-14T07:20:41;21.10;63.30
79786;DHT22;69265;43.614;13.518;2023-06-14T07:23:08;21.20;63.50
79786;DHT22;69265;43.614;13.518;2023-06-14T07:25:33;21.30;63.40
79786;DHT22;69265;43.614;13.518;2023-06-14T07:27:59;21.40;63.40
79786;DHT22;69265;43.614;13.518;2023-06-14T07:30:24;21.40;63.30
79786;DHT22;69265;43.614;13.518;2023-06-14T07:32:52;21.50;63.10
79786;DHT22;69265;43.614;13.518;2023-06-14T07:35:18;21.50;63.10
79786;DHT22;69265;43.614;13.518;2023-06-14T07:37:44;21.50;63.10
79786;DHT22;69265;43.614;13.518;2023-06-14T07:40:10;21.60;63.30
79786;DHT22;69265;43.614;13.518;2023-06-14T07:42:37;21.70;63.30
79786;DHT22;69265;43.614;13.518;2023-06-14T07:45:03;21.80;63.20
79786;DHT22;69265;43.614;13.518;2023-06-14T07:47:28;21.90;63.00
79786;DHT22;69265;43.614;13.518;2023-06-14T07:49:54;22.10;63.00
79786;DHT22;69265;43.614;13.518;2023-06-14T07:52:20;22.20;62.80
79786;DHT22;69265;43.614;13.518;2023-06-14T07:54:45;22.50;62.60
79786;DHT22;69265;43.614;13.518;2023-06-14T07:57:11;22.50;62.30
79786;DHT22;69265;43.614;13.518;2023-06-14T07:59:37;22.60;62.20
79786;DHT22;69265;43.614;13.518;2023-06-14T08:02:03;22.70;62.20
79786;DHT22;69265;43.614;13.518;2023-06-14T08:04:29;22.80;62.10
79786;DHT22;69265;43.614;13.518;2023-06-14T08:06:56;22.80;62.00
79786;DHT22;69265;43.614;13.518;2023-06-14T08:09:21;22.90;61.80
79786;DHT22;69265;43.614;13.518;2023-06-14T08:11:48;22.90;61.70
79786;DHT22;69265;43.614;13.518;2023-06-14T08:14:13;23.00;61.70
79786;DHT22;69265;43.614;13.518;2023-06-14T08:16:39;23.10;61.60
79786;DHT22;69265;43.614;13.518;2023-06-14T08:19:05;23.20;61.50
79786;DHT22;69265;43.614;13.518;2023-06-14T08:21:30;23.20;61.40
79786;DHT22;69265;43.614;13.518;2023-06-14T08:23:59;23.30;61.20
79786;DHT22;69265;43.614;13.518;2023-06-14T08:26:25;23.30;61.10
79786;DHT22;69265;43.614;13.518;2023-06-14T08:28:54;23.30;60.80
79786;DHT22;69265;43.614;13.518;2023-06-14T08:31:20;23.40;60.80
79786;DHT22;69265;43.614;13.518;2023-06-14T08:33:46;23.40;60.90
79786;DHT22;69265;43.614;13.518;2023-06-14T08:36:11;23.50;60.90
79786;DHT22;69265;43.614;13.518;2023-06-14T08:38:38;23.50;60.90
79786;DHT22;69265;43.614;13.518;2023-06-14T08:41:04;23.60;61.00
79786;DHT22;69265;43.614;13.518;2023-06-14T08:43:31;23.70;60.80
79786;DHT22;69265;43.614;13.518;2023-06-14T08:46:00;23.80;60.50
79786;DHT22;69265;43.614;13.518;2023-06-14T08:48:26;23.90;60.40
79786;DHT22;69265;43.614;13.518;2023-06-14T08:50:53;24.00;60.30
79786;DHT22;69265;43.614;13.518;2023-06-14T08:53:27;24.00;60.20
79786;DHT22;69265;43.614;13.518;2023-06-14T08:55:54;24.20;60.10
79786;DHT22;69265;43.614;13.518;2023-06-14T08:58:20;24.30;60.30
79786;DHT22;69265;43.614;13.518;2023-06-14T09:00:49;24.40;60.10
79786;DHT22;69265;43.614;13.518;2023-06-14T09:03:17;24.70;60.00
79786;DHT22;69265;43.614;13.518;2023-06-14T09:05:46;24.80;60.00
79786;DHT22;69265;43.614;13.518;2023-06-14T09:08:12;25.00;59.60
79786;DHT22;69265;43.614;13.518;2023-06-14T09:10:37;25.00;59.50
79786;DHT22;69265;43.614;13.518;2023-06-14T09:13:04;25.00;59.30
79786;DHT22;69265;43.614;13.518;2023-06-14T09:15:30;25.20;59.10
79786;DHT22;69265;43.614;13.518;2023-06-14T09:17:56;25.20;58.60
79786;DHT22;69265;43.614;13.518;2023-06-14T09:20:23;25.30;58.30
79786;DHT22;69265;43.614;13.518;2023-06-14T09:22:49;25.30;58.30
79786;DHT22;69265;43.614;13.518;2023-06-14T09:25:15;25.50;58.10
79786;DHT22;69265;43.614;13.518;2023-06-14T09:27:41;25.60;57.80
79786;DHT22;69265;43.614;13.518;2023-06-14T09:30:10;25.60;57.40
79786;DHT22;69265;43.614;13.518;2023-06-14T09:32:36;25.80;57.50
79786;DHT22;69265;43.614;13.518;2023-06-14T09:35:02;25.80;57.40
79786;DHT22;69265;43.614;13.518;2023-06-14T09:37:28;26.00;57.30
79786;DHT22;69265;43.614;13.518;2023-06-14T09:39:54;26.00;57.10
79786;DHT22;69265;43.614;13.518;2023-06-14T09:42:20;26.00;57.10
79786;DHT22;69265;43.614;13.518;2023-06-14T09:44:49;25.80;56.80
79786;DHT22;69265;43.614;13.518;2023-06-14T09:47:15;25.70;56.40
79786;DHT22;69265;43.614;13.518;2023-06-14T09:49:41;25.60;56.50
79786;DHT22;69265;43.614;13.518;2023-06-14T09:52:07;25.40;56.60
79786;DHT22;69265;43.614;13.518;2023-06-14T09:54:35;25.30;55.80
79786;DHT22;69265;43.614;13.518;2023-06-14T09:57:05;25.10;56.00
79786;DHT22;69265;43.614;13.518;2023-06-14T09:59:32;25.10;56.20
79786;DHT22;69265;43.614;13.518;2023-06-14T10:01:58;25.10;55.60
79786;DHT22;69265;43.614;13.518;2023-06-14T10:04:26;25.00;55.30
79786;DHT22;69265;43.614;13.518;2023-06-14T10:06:52;25.00;55.30
79786;DHT22;69265;43.614;13.518;2023-06-14T10:09:19;25.00;54.80
79786;DHT22;69265;43.614;13.518;2023-06-14T10:11:45;25.00;55.00
79786;DHT22;69265;43.614;13.518;2023-06-14T10:14:11;25.10;54.30
79786;DHT22;69265;43.614;13.518;2023-06-14T10:16:39;25.10;53.90
79786;DHT22;69265;43.614;13.518;2023-06-14T10:22:09;25.00;54.30
79786;DHT22;69265;43.614;13.518;2023-06-14T10:24:33;25.00;54.30
79786;DHT22;69265;43.614;13.518;2023-06-14T10:27:01;25.00;54.70
79786;DHT22;69265;43.614;13.518;2023-06-14T10:29:27;25.20;54.80
79786;DHT22;69265;43.614;13.518;2023-06-14T10:31:58;25.20;54.30
79786;DHT22;69265;43.614;13.518;2023-06-14T10:34:25;25.10;53.90
79786;DHT22;69265;43.614;13.518;2023-06-14T10:37:03;25.00;53.60
79786;DHT22;69265;43.614;13.518;2023-06-14T10:39:29;24.90;53.70
79786;DHT22;69265;43.614;13.518;2023-06-14T10:41:56;24.70;54.10
79786;DHT22;69265;43.614;13.518;2023-06-14T10:46:54;24.60;54.00
79786;DHT22;69265;43.614;13.518;2023-06-14T10:49:20;24.70;54.00
79786;DHT22;69265;43.614;13.518;2023-06-14T10:52:02;24.70;54.10
79786;DHT22;69265;43.614;13.518;2023-06-14T10:54:28;25.00;53.80
79786;DHT22;69265;43.614;13.518;2023-06-14T10:56:53;25.20;53.60
79786;DHT22;69265;43.614;13.518;2023-06-14T10:59:20;25.30;52.50
79786;DHT22;69265;43.614;13.518;2023-06-14T11:04:34;25.60;51.40
79786;DHT22;69265;43.614;13.518;2023-06-14T11:12:15;25.60;51.90
79786;DHT22;69265;43.614;13.518;2023-06-14T11:14:41;25.60;51.70
79786;DHT22;69265;43.614;13.518;2023-06-14T11:17:06;25.60;51.60
79786;DHT22;69265;43.614;13.518;2023-06-14T11:19:32;25.60;51.90
79786;DHT22;69265;43.614;13.518;2023-06-14T11:21:58;25.50;51.70
79786;DHT22;69265;43.614;13.518;2023-06-14T11:24:24;25.40;52.10
79786;DHT22;69265;43.614;13.518;2023-06-14T11:26:50;25.00;52.30
79786;DHT22;69265;43.614;13.518;2023-06-14T11:29:16;24.80;52.50
79786;DHT22;69265;43.614;13.518;2023-06-14T11:31:44;24.60;53.00
79786;DHT22;69265;43.614;13.518;2023-06-14T11:34:13;24.50;53.60
79786;DHT22;69265;43.614;13.518;2023-06-14T11:36:39;24.40;54.10
79786;DHT22;69265;43.614;13.518;2023-06-14T11:39:05;24.20;54.40
79786;DHT22;69265;43.614;13.518;2023-06-14T11:41:32;24.20;54.70
79786;DHT22;69265;43.614;13.518;2023-06-14T11:43:59;24.20;54.80
79786;DHT22;69265;43.614;13.518;2023-06-14T11:46:25;24.00;55.00
79786;DHT22;69265;43.614;13.518;2023-06-14T11:48:51;23.90;55.70
79786;DHT22;69265;43.614;13.518;2023-06-14T11:51:17;23.90;55.60
79786;DHT22;69265;43.614;13.518;2023-06-14T11:53:44;23.90;55.70
79786;DHT22;69265;43.614;13.518;2023-06-14T11:56:09;24.00;55.70
79786;DHT22;69265;43.614;13.518;2023-06-14T11:58:35;24.20;55.60
79786;DHT22;69265;43.614;13.518;2023-06-14T12:01:02;24.10;55.50
79786;DHT22;69265;43.614;13.518;2023-06-14T12:03:28;24.00;55.40
79786;DHT22;69265;43.614;13.518;2023-06-14T12:06:09;24.00;55.80
79786;DHT22;69265;43.614;13.518;2023-06-14T12:08:35;23.90;56.20
79786;DHT22;69265;43.614;13.518;2023-06-14T12:11:04;23.60;55.90
79786;DHT22;69265;43.614;13.518;2023-06-14T12:13:30;23.50;56.40
79786;DHT22;69265;43.614;13.518;2023-06-14T12:15:56;23.40;56.70
79786;DHT22;69265;43.614;13.518;2023-06-14T12:18:31;23.30;57.10
79786;DHT22;69265;43.614;13.518;2023-06-14T12:20:58;23.30;57.40
79786;DHT22;69265;43.614;13.518;2023-06-14T12:23:38;23.40;57.30
79786;DHT22;69265;43.614;13.518;2023-06-14T12:26:04;23.40;57.30
79786;DHT22;69265;43.614;13.518;2023-06-14T12:28:31;23.40;57.10
79786;DHT22;69265;43.614;13.518;2023-06-14T12:30:57;23.10;57.70
79786;DHT22;69265;43.614;13.518;2023-06-14T12:33:24;23.00;58.00
79786;DHT22;69265;43.614;13.518;2023-06-14T12:35:50;23.00;58.30
79786;DHT22;69265;43.614;13.518;2023-06-14T12:38:15;23.10;58.50
79786;DHT22;69265;43.614;13.518;2023-06-14T12:40:41;23.20;58.40
79786;DHT22;69265;43.614;13.518;2023-06-14T12:43:07;23.40;58.50
79786;DHT22;69265;43.614;13.518;2023-06-14T12:45:33;23.40;58.30
79786;DHT22;69265;43.614;13.518;2023-06-14T12:47:59;23.20;58.40
79786;DHT22;69265;43.614;13.518;2023-06-14T12:50:24;23.20;58.50
79786;DHT22;69265;43.614;13.518;2023-06-14T12:52:50;23.20;58.50
79786;DHT22;69265;43.614;13.518;2023-06-14T12:55:16;23.20;58.80
79786;DHT22;69265;43.614;13.518;2023-06-14T12:57:41;23.20;58.80
79786;DHT22;69265;43.614;13.518;2023-06-14T13:00:07;23.20;59.00
79786;DHT22;69265;43.614;13.518;2023-06-14T13:02:33;23.30;59.10
79786;DHT22;69265;43.614;13.518;2023-06-14T13:05:01;23.50;58.90
79786;DHT22;69265;43.614;13.518;2023-06-14T13:07:29;23.60;59.00
79786;DHT22;69265;43.614;13.518;2023-06-14T13:09:54;23.60;59.00
79786;DHT22;69265;43.614;13.518;2023-06-14T13:12:20;23.90;58.50
79786;DHT22;69265;43.614;13.518;2023-06-14T13:14:45;23.90;59.00
79786;DHT22;69265;43.614;13.518;2023-06-14T13:17:11;24.00;59.00
79786;DHT22;69265;43.614;13.518;2023-06-14T13:19:37;24.00;59.30
79786;DHT22;69265;43.614;13.518;2023-06-14T13:22:03;23.90;59.30
79786;DHT22;69265;43.614;13.518;2023-06-14T13:24:28;24.00;59.30
79786;DHT22;69265;43.614;13.518;2023-06-14T13:26:55;24.00;59.50
79786;DHT22;69265;43.614;13.518;2023-06-14T13:29:22;23.90;59.00
79786;DHT22;69265;43.614;13.518;2023-06-14T13:31:48;23.90;59.10
79786;DHT22;69265;43.614;13.518;2023-06-14T13:34:13;23.90;59.80
79786;DHT22;69265;43.614;13.518;2023-06-14T13:36:39;23.80;60.00
79786;DHT22;69265;43.614;13.518;2023-06-14T13:39:04;23.90;60.30
79786;DHT22;69265;43.614;13.518;2023-06-14T13:41:30;23.90;60.10
79786;DHT22;69265;43.614;13.518;2023-06-14T13:43:59;23.90;60.30
79786;DHT22;69265;43.614;13.518;2023-06-14T13:46:25;23.80;60.30
79786;DHT22;69265;43.614;13.518;2023-06-14T13:48:51;23.80;60.50
79786;DHT22;69265;43.614;13.518;2023-06-14T13:51:16;23.70;60.90
79786;DHT22;69265;43.614;13.518;2023-06-14T13:53:45;23.80;60.90
79786;DHT22;69265;43.614;13.518;2023-06-14T13:56:10;23.90;60.80
79786;DHT22;69265;43.614;13.518;2023-06-14T13:58:37;23.90;60.40
79786;DHT22;69265;43.614;13.518;2023-06-14T14:01:03;24.00;60.50
79786;DHT22;69265;43.614;13.518;2023-06-14T14:03:28;24.00;60.30
79786;DHT22;69265;43.614;13.518;2023-06-14T14:05:54;24.10;60.00
79786;DHT22;69265;43.614;13.518;2023-06-14T14:08:20;24.00;59.50
79786;DHT22;69265;43.614;13.518;2023-06-14T14:10:45;24.00;59.60
79786;DHT22;69265;43.614;13.518;2023-06-14T14:13:11;24.10;59.70
79786;DHT22;69265;43.614;13.518;2023-06-14T14:15:37;24.20;59.60
79786;DHT22;69265;43.614;13.518;2023-06-14T14:18:03;24.20;59.70
79786;DHT22;69265;43.614;13.518;2023-06-14T14:20:31;24.20;59.60
79786;DHT22;69265;43.614;13.518;2023-06-14T14:22:57;24.20;59.80
79786;DHT22;69265;43.614;13.518;2023-06-14T14:25:23;24.20;60.10
79786;DHT22;69265;43.614;13.518;2023-06-14T14:27:48;24.30;60.10
79786;DHT22;69265;43.614;13.518;2023-06-14T14:30:14;24.40;60.00
79786;DHT22;69265;43.614;13.518;2023-06-14T14:32:42;24.30;60.00
79786;DHT22;69265;43.614;13.518;2023-06-14T14:35:08;24.40;60.00
79786;DHT22;69265;43.614;13.518;2023-06-14T14:37:34;24.20;60.00
79786;DHT22;69265;43.614;13.518;2023-06-14T14:40:00;24.20;60.10
79786;DHT22;69265;43.614;13.518;2023-06-14T14:42:25;24.20;60.50
79786;DHT22;69265;43.614;13.518;2023-06-14T14:44:52;24.20;60.70
79786;DHT22;69265;43.614;13.518;2023-06-14T14:47:17;24.10;60.80
79786;DHT22;69265;43.614;13.518;2023-06-14T14:49:43;24.00;60.90
79786;DHT22;69265;43.614;13.518;2023-06-14T14:52:08;24.00;60.90
79786;DHT22;69265;43.614;13.518;2023-06-14T14:54:34;24.00;61.10
79786;DHT22;69265;43.614;13.518;2023-06-14T14:57:01;23.90;61.20
79786;DHT22;69265;43.614;13.518;2023-06-14T14:59:27;23.90;61.20
79786;DHT22;69265;43.614;13.518;2023-06-14T15:01:52;23.90;61.40
79786;DHT22;69265;43.614;13.518;2023-06-14T15:04:18;23.90;61.20
79786;DHT22;69265;43.614;13.518;2023-06-14T15:06:43;23.80;61.30
79786;DHT22;69265;43.614;13.518;2023-06-14T15:09:09;23.80;61.40
79786;DHT22;69265;43.614;13.518;2023-06-14T15:11:35;23.70;61.60
79786;DHT22;69265;43.614;13.518;2023-06-14T15:14:00;23.70;61.70
79786;DHT22;69265;43.614;13.518;2023-06-14T15:16:26;23.80;61.70
79786;DHT22;69265;43.614;13.518;2023-06-14T15:18:52;23.90;61.50
79786;DHT22;69265;43.614;13.518;2023-06-14T15:21:17;23.70;61.30
79786;DHT22;69265;43.614;13.518;2023-06-14T15:23:45;23.60;61.50
79786;DHT22;69265;43.614;13.518;2023-06-14T15:26:11;23.60;61.60
79786;DHT22;69265;43.614;13.518;2023-06-14T15:28:36;23.50;61.80
79786;DHT22;69265;43.614;13.518;2023-06-14T15:31:02;23.40;62.00
79786;DHT22;69265;43.614;13.518;2023-06-14T15:33:27;23.40;61.90
79786;DHT22;69265;43.614;13.518;2023-06-14T15:35:53;23.50;61.90
79786;DHT22;69265;43.614;13.518;2023-06-14T15:38:20;23.50;62.00
79786;DHT22;69265;43.614;13.518;2023-06-14T15:40:46;23.40;62.10
79786;DHT22;69265;43.614;13.518;2023-06-14T15:43:11;23.40;62.10
79786;DHT22;69265;43.614;13.518;2023-06-14T15:45:37;23.40;62.20
79786;DHT22;69265;43.614;13.518;2023-06-14T15:48:03;23.40;62.20
79786;DHT22;69265;43.614;13.518;2023-06-14T15:50:28;23.40;62.20
79786;DHT22;69265;43.614;13.518;2023-06-14T15:52:54;23.30;62.30
79786;DHT22;69265;43.614;13.518;2023-06-14T15:55:20;23.30;62.50
79786;DHT22;69265;43.614;13.518;2023-06-14T15:57:46;23.20;62.70
79786;DHT22;69265;43.614;13.518;2023-06-14T16:00:14;23.20;62.70
79786;DHT22;69265;43.614;13.518;2023-06-14T16:02:40;23.20;62.60
79786;DHT22;69265;43.614;13.518;2023-06-14T16:05:06;23.20;62.60
79786;DHT22;69265;43.614;13.518;2023-06-14T16:07:32;23.20;62.50
79786;DHT22;69265;43.614;13.518;2023-06-14T16:09:57;23.20;62.60
79786;DHT22;69265;43.614;13.518;2023-06-14T16:12:23;23.20;62.60
79786;DHT22;69265;43.614;13.518;2023-06-14T16:14:48;23.30;62.50
79786;DHT22;69265;43.614;13.518;2023-06-14T16:17:14;23.30;62.50
79786;DHT22;69265;43.614;13.518;2023-06-14T16:19:40;23.30;62.50
79786;DHT22;69265;43.614;13.518;2023-06-14T16:22:05;23.30;62.50
79786;DHT22;69265;43.614;13.518;2023-06-14T16:24:31;23.30;62.50
79786;DHT22;69265;43.614;13.518;2023-06-14T16:26:57;23.30;62.50
79786;DHT22;69265;43.614;13.518;2023-06-14T16:29:22;23.30;62.40
79786;DHT22;69265;43.614;13.518;2023-06-14T16:31:48;23.30;62.50
79786;DHT22;69265;43.614;13.518;2023-06-14T16:34:14;23.30;62.50
79786;DHT22;69265;43.614;13.518;2023-06-14T16:36:42;23.30;62.50
79786;DHT22;69265;43.614;13.518;2023-06-14T16:39:08;23.20;62.70
79786;DHT22;69265;43.614;13.518;2023-06-14T16:41:34;23.20;62.70
79786;DHT22;69265;43.614;13.518;2023-06-14T16:43:59;23.20;62.80
79786;DHT22;69265;43.614;13.518;2023-06-14T16:46:29;23.20;62.80
79786;DHT22;69265;43.614;13.518;2023-06-14T16:48:55;23.10;62.80
79786;DHT22;69265;43.614;13.518;2023-06-14T16:51:21;23.20;63.10
79786;DHT22;69265;43.614;13.518;2023-06-14T16:53:46;23.10;63.20
79786;DHT22;69265;43.614;13.518;2023-06-14T16:56:12;23.10;63.30
79786;DHT22;69265;43.614;13.518;2023-06-14T16:58:38;23.10;63.50
79786;DHT22;69265;43.614;13.518;2023-06-14T17:01:03;23.00;63.60
79786;DHT22;69265;43.614;13.518;2023-06-14T17:03:29;23.00;63.90
79786;DHT22;69265;43.614;13.518;2023-06-14T17:05:57;22.90;64.20
79786;DHT22;69265;43.614;13.518;2023-06-14T17:08:23;22.90;64.60
79786;DHT22;69265;43.614;13.518;2023-06-14T17:10:52;22.90;64.80
79786;DHT22;69265;43.614;13.518;2023-06-14T17:13:18;22.80;64.90
79786;DHT22;69265;43.614;13.518;2023-06-14T17:15:43;22.80;65.00
79786;DHT22;69265;43.614;13.518;2023-06-14T17:18:11;22.80;65.10
79786;DHT22;69265;43.614;13.518;2023-06-14T17:20:37;22.80;65.40
79786;DHT22;69265;43.614;13.518;2023-06-14T17:23:14;22.80;65.60
79786;DHT22;69265;43.614;13.518;2023-06-14T17:25:39;22.80;65.70
79786;DHT22;69265;43.614;13.518;2023-06-14T17:28:06;22.80;66.00
79786;DHT22;69265;43.614;13.518;2023-06-14T17:30:31;22.80;66.20
79786;DHT22;69265;43.614;13.518;2023-06-14T17:32:57;22.70;66.40
79786;DHT22;69265;43.614;13.518;2023-06-14T17:35:23;22.70;66.50
79786;DHT22;69265;43.614;13.518;2023-06-14T17:37:49;22.60;66.70
79786;DHT22;69265;43.614;13.518;2023-06-14T17:40:15;22.60;66.90
79786;DHT22;69265;43.614;13.518;2023-06-14T17:42:40;22.60;67.00
79786;DHT22;69265;43.614;13.518;2023-06-14T17:45:06;22.50;67.20
79786;DHT22;69265;43.614;13.518;2023-06-14T17:47:32;22.50;67.50
79786;DHT22;69265;43.614;13.518;2023-06-14T17:49:58;22.40;67.80
79786;DHT22;69265;43.614;13.518;2023-06-14T17:52:25;22.40;68.20
79786;DHT22;69265;43.614;13.518;2023-06-14T17:54:51;22.30;68.30
79786;DHT22;69265;43.614;13.518;2023-06-14T17:57:16;22.30;68.30
79786;DHT22;69265;43.614;13.518;2023-06-14T17:59:42;22.30;68.20
79786;DHT22;69265;43.614;13.518;2023-06-14T18:02:08;22.20;68.50
79786;DHT22;69265;43.614;13.518;2023-06-14T18:04:34;22.20;68.60
79786;DHT22;69265;43.614;13.518;2023-06-14T18:06:59;22.10;68.60
79786;DHT22;69265;43.614;13.518;2023-06-14T18:09:26;22.10;69.00
79786;DHT22;69265;43.614;13.518;2023-06-14T18:11:52;22.00;69.00
79786;DHT22;69265;43.614;13.518;2023-06-14T18:14:18;22.00;68.90
79786;DHT22;69265;43.614;13.518;2023-06-14T18:16:47;21.90;68.70
79786;DHT22;69265;43.614;13.518;2023-06-14T18:19:12;21.90;69.00
79786;DHT22;69265;43.614;13.518;2023-06-14T18:21:42;21.90;69.10
79786;DHT22;69265;43.614;13.518;2023-06-14T18:24:08;21.80;69.00
79786;DHT22;69265;43.614;13.518;2023-06-14T18:26:35;21.70;68.80
79786;DHT22;69265;43.614;13.518;2023-06-14T18:29:01;21.80;68.70
79786;DHT22;69265;43.614;13.518;2023-06-14T18:31:27;21.70;68.40
79786;DHT22;69265;43.614;13.518;2023-06-14T18:33:53;21.70;68.20
79786;DHT22;69265;43.614;13.518;2023-06-14T18:36:19;21.70;68.00
79786;DHT22;69265;43.614;13.518;2023-06-14T18:38:45;21.70;67.80
79786;DHT22;69265;43.614;13.518;2023-06-14T18:41:13;21.70;67.50
79786;DHT22;69265;43.614;13.518;2023-06-14T18:43:38;21.70;67.30
79786;DHT22;69265;43.614;13.518;2023-06-14T18:46:04;21.70;67.20
79786;DHT22;69265;43.614;13.518;2023-06-14T18:48:30;21.50;67.10
79786;DHT22;69265;43.614;13.518;2023-06-14T18:50:56;21.50;67.00
79786;DHT22;69265;43.614;13.518;2023-06-14T18:53:24;21.50;67.10
79786;DHT22;69265;43.614;13.518;2023-06-14T18:55:52;21.50;67.10
79786;DHT22;69265;43.614;13.518;2023-06-14T18:58:18;21.40;67.20
79786;DHT22;69265;43.614;13.518;2023-06-14T19:00:47;21.30;67.40
79786;DHT22;69265;43.614;13.518;2023-06-14T19:03:13;21.10;68.10
79786;DHT22;69265;43.614;13.518;2023-06-14T19:05:40;21.10;68.50
79786;DHT22;69265;43.614;13.518;2023-06-14T19:08:06;21.00;69.20
79786;DHT22;69265;43.614;13.518;2023-06-14T19:10:33;20.90;69.60
79786;DHT22;69265;43.614;13.518;2023-06-14T19:12:59;20.90;69.80
79786;DHT22;69265;43.614;13.518;2023-06-14T19:15:27;20.90;70.00
79786;DHT22;69265;43.614;13.518;2023-06-14T19:18:00;20.90;70.10
79786;DHT22;69265;43.614;13.518;2023-06-14T19:20:28;20.90;70.20
79786;DHT22;69265;43.614;13.518;2023-06-14T19:22:55;20.80;70.10
79786;DHT22;69265;43.614;13.518;2023-06-14T19:25:21;20.90;70.40
79786;DHT22;69265;43.614;13.518;2023-06-14T19:27:48;20.90;70.50
79786;DHT22;69265;43.614;13.518;2023-06-14T19:30:15;20.80;70.50
79786;DHT22;69265;43.614;13.518;2023-06-14T19:32:42;20.80;70.70
79786;DHT22;69265;43.614;13.518;2023-06-14T19:35:11;20.90;70.80
79786;DHT22;69265;43.614;13.518;2023-06-14T19:37:37;20.90;70.80
79786;DHT22;69265;43.614;13.518;2023-06-14T19:40:04;20.90;70.80
79786;DHT22;69265;43.614;13.518;2023-06-14T19:42:31;20.90;71.00
79786;DHT22;69265;43.614;13.518;2023-06-14T19:44:57;20.90;71.30
79786;DHT22;69265;43.614;13.518;2023-06-14T19:47:26;20.90;71.50
79786;DHT22;69265;43.614;13.518;2023-06-14T19:49:53;20.80;71.60
79786;DHT22;69265;43.614;13.518;2023-06-14T19:52:19;20.80;71.70